Time;durP1;ratioP1;P1;durP2;ratioP2;P2;SDS_P1;SDS_P2;PMS_P1;PMS_P2;Temp;Humidity;BMP_temperature;BMP_pressure;BME280_temperature;BME280_humidity;BME280_pressure;Samples;Min_cycle;Max_cycle;Signal;HPM_P1;HPM_P2
2022/10/03 00:02:37;;;;;;;;;;;;;;;14.50;71.48;100330.22;5295720;33;33313;-67
2022/10/03 00:05:40;;;;;;;;;;;;;;;14.97;70.33;100332.78;5280812;33;33734;-73
2022/10/03 00:09:02;;;;;;;;;;;;;;;13.98;73.87;100335.69;5279688;33;44429;-67
2022/10/03 00:12:12;;;;;;;;;;;;;;;14.20;73.90;100328.28;5278886;33;33633;-74
2022/10/03 00:15:24;;;;;;;;;;;;;;;14.10;73.34;100335.00;5281083;33;42874;-66
2022/10/03 00:18:29;;;;;;;;;;;;;;;14.38;72.65;100346.75;5295205;33;34099;-67
2022/10/03 00:21:31;;;;;;;;;;;;;;;14.32;72.84;100343.50;5280631;33;33385;-67
2022/10/03 00:24:52;;;;;;;;;;;;;;;14.25;72.60;100354.50;5295794;33;33935;-74
2022/10/03 00:28:13;;;;;;;;;;;;;;;14.27;72.21;100342.03;5277799;33;33953;-68
2022/10/03 00:31:23;;;;;;;;;;;;;;;14.01;72.72;100336.38;5265888;33;43405;-68
2022/10/03 00:34:28;;;;;;;;;;;;;;;14.51;71.84;100334.56;5295162;33;34400;-74
2022/10/03 00:37:35;;;;;;;;;;;;;;;14.59;70.80;100343.75;5266616;33;34160;-74
2022/10/03 00:40:37;;;;;;;;;;;;;;;14.48;70.03;100340.00;5282736;33;34723;-73
2022/10/03 00:43:45;;;;;;;;;;;;;;;14.08;72.61;100323.69;5280401;33;34504;-74
2022/10/03 00:46:51;;;;;;;;;;;;;;;13.94;72.39;100332.34;5267109;33;45701;-67
2022/10/03 00:49:53;;;;;;;;;;;;;;;13.93;73.41;100343.88;5283691;33;33672;-74
2022/10/03 00:53:03;;;;;;;;;;;;;;;14.16;72.08;100345.25;5279408;33;33911;-68
2022/10/03 00:56:11;;;;;;;;;;;;;;;14.15;71.99;100353.28;5282716;33;34036;-69
2022/10/03 00:59:31;;;;;;;;;;;;;;;14.35;71.65;100343.31;5266553;33;44646;-68
2022/10/03 01:02:33;;;;;;;;;;;;;;;14.29;71.30;100334.84;5281504;33;33414;-74
2022/10/03 01:05:35;;;;;;;;;;;;;;;14.18;72.21;100337.25;5293769;33;34030;-67
2022/10/03 01:08:46;;;;;;;;;;;;;;;13.89;73.08;100336.19;5266833;33;33968;-67
2022/10/03 01:11:48;;;;;;;;;;;;;;;13.77;72.39;100335.87;5277194;33;46527;-73
2022/10/03 01:15:05;;;;;;;;;;;;;;;14.23;72.11;100328.16;5292148;33;34427;-74
2022/10/03 01:18:23;;;;;;;;;;;;;;;13.63;74.03;100338.41;5288695;33;33458;-74
2022/10/03 01:21:38;;;;;;;;;;;;;;;13.89;72.43;100337.03;5279505;33;34005;-73
2022/10/03 01:24:44;;;;;;;;;;;;;;;13.82;72.49;100327.72;5266448;33;33230;-67
2022/10/03 01:31:17;;;;;;;;;;;;;;;13.41;74.65;100337.84;5279969;33;44367;-73
2022/10/03 01:34:41;;;;;;;;;;;;;;;13.55;73.22;100343.25;5269319;33;33919;-66
2022/10/03 01:37:46;;;;;;;;;;;;;;;13.88;71.84;100352.97;5294308;33;44597;-68
2022/10/03 01:40:48;;;;;;;;;;;;;;;14.34;69.97;100346.03;5266516;33;33833;-73
2022/10/03 01:43:52;;;;;;;;;;;;;;;14.09;70.72;100352.66;5294451;33;33756;-74
2022/10/03 01:46:55;;;;;;;;;;;;;;;14.13;71.07;100356.00;5266000;33;33721;-73
2022/10/03 01:49:59;;;;;;;;;;;;;;;14.37;69.76;100353.81;5275586;33;34610;-73
2022/10/03 01:53:01;;;;;;;;;;;;;;;13.60;71.31;100358.87;5274136;33;34461;-73
2022/10/03 01:56:06;;;;;;;;;;;;;;;13.95;71.29;100357.84;5280741;33;33345;-73
2022/10/03 01:59:28;;;;;;;;;;;;;;;13.89;71.55;100365.25;5295042;33;34738;-68
2022/10/03 02:02:32;;;;;;;;;;;;;;;13.88;71.28;100364.38;5279000;33;34300;-75
2022/10/03 02:05:40;;;;;;;;;;;;;;;14.79;67.61;100355.00;5280605;33;34587;-67
2022/10/03 02:08:42;;;;;;;;;;;;;;;14.35;68.34;100358.31;5265730;33;44598;-74
2022/10/03 02:11:54;;;;;;;;;;;;;;;13.92;69.92;100341.31;5272212;33;34673;-74
2022/10/03 02:14:55;;;;;;;;;;;;;;;13.78;70.95;100361.41;5295951;33;34364;-67
2022/10/03 02:18:11;;;;;;;;;;;;;;;13.77;71.42;100370.22;5278730;33;33979;-73
2022/10/03 02:21:17;;;;;;;;;;;;;;;13.76;71.49;100375.59;5294634;33;44720;-73
2022/10/03 02:24:38;;;;;;;;;;;;;;;13.86;71.18;100358.34;5266539;33;35651;-67
2022/10/03 02:27:45;;;;;;;;;;;;;;;14.05;70.54;100359.06;5275213;33;33897;-73
2022/10/03 02:31:01;;;;;;;;;;;;;;;14.34;68.96;100372.47;5279680;33;44728;-74
2022/10/03 02:34:03;;;;;;;;;;;;;;;13.41;71.76;100378.28;5266689;33;33568;-74
2022/10/03 02:37:14;;;;;;;;;;;;;;;13.49;72.75;100388.44;5294191;33;34498;-73
2022/10/03 02:40:31;;;;;;;;;;;;;;;13.44;72.29;100387.81;5279615;33;44541;-67
2022/10/03 02:43:52;;;;;;;;;;;;;;;13.73;71.74;100392.47;5277803;33;34131;-74
2022/10/03 02:47:09;;;;;;;;;;;;;;;13.19;74.09;100396.09;5294366;33;34493;-67
2022/10/03 02:50:30;;;;;;;;;;;;;;;13.07;73.98;100394.03;5290094;32;46214;-68
2022/10/03 02:53:37;;;;;;;;;;;;;;;13.40;72.76;100405.63;5286158;33;34189;-66
2022/10/03 02:56:39;;;;;;;;;;;;;;;13.26;73.14;100405.44;5274633;33;33312;-67
2022/10/03 02:59:47;;;;;;;;;;;;;;;13.69;72.42;100411.19;5280927;33;44664;-72
2022/10/03 03:03:00;;;;;;;;;;;;;;;13.40;72.35;100400.34;5296107;33;34566;-66
2022/10/03 03:06:04;;;;;;;;;;;;;;;13.84;70.86;100399.81;5281617;33;34311;-74
2022/10/03 03:09:33;;;;;;;;;;;;;;;13.44;73.07;100408.94;5275241;33;33872;-74
2022/10/03 03:12:42;;;;;;;;;;;;;;;13.41;72.63;100404.69;5275830;33;33822;-74
2022/10/03 03:16:03;;;;;;;;;;;;;;;13.25;73.66;100409.87;5267876;33;44405;-67
2022/10/03 03:19:14;;;;;;;;;;;;;;;13.80;71.30;100408.84;5296889;33;33868;-73
2022/10/03 03:22:36;;;;;;;;;;;;;;;13.51;72.40;100412.97;5266312;33;44688;-72
2022/10/03 03:25:52;;;;;;;;;;;;;;;13.21;73.19;100418.88;5282161;33;33890;-66
2022/10/03 03:28:56;;;;;;;;;;;;;;;13.62;71.58;100409.81;5279811;33;33298;-68
2022/10/03 03:32:09;;;;;;;;;;;;;;;12.99;74.16;100416.37;5265978;33;33588;-68
2022/10/03 03:35:32;;;;;;;;;;;;;;;13.59;72.47;100423.16;5283171;33;46325;-68
2022/10/03 03:38:40;;;;;;;;;;;;;;;13.14;73.04;100413.94;5281211;33;35600;-74
2022/10/03 03:41:45;;;;;;;;;;;;;;;13.55;71.79;100419.81;5267483;33;44826;-67
2022/10/03 03:44:54;;;;;;;;;;;;;;;13.63;71.97;100415.00;5308036;33;35127;-73
2022/10/03 03:48:01;;;;;;;;;;;;;;;13.75;71.77;100418.81;5280835;33;33903;-67
2022/10/03 03:51:10;;;;;;;;;;;;;;;13.97;70.43;100429.09;5296857;33;33515;-73
2022/10/03 03:54:19;;;;;;;;;;;;;;;13.42;71.51;100424.88;5268209;33;45159;-73
2022/10/03 03:57:41;;;;;;;;;;;;;;;13.93;69.98;100433.69;5285499;33;33181;-66
2022/10/03 04:01:02;;;;;;;;;;;;;;;13.87;69.69;100412.88;5290460;33;44794;-67
2022/10/03 04:04:16;;;;;;;;;;;;;;;13.42;71.73;100426.66;5280463;33;34051;-73
2022/10/03 04:07:27;;;;;;;;;;;;;;;13.01;73.12;100416.34;5281177;33;43473;-67
2022/10/03 04:10:37;;;;;;;;;;;;;;;13.81;70.75;100419.34;5261787;33;34815;-67
2022/10/03 04:13:46;;;;;;;;;;;;;;;13.44;72.62;100419.50;5279607;33;34002;-67
2022/10/03 04:20:44;;;;;;;;;;;;;;;13.83;69.96;100420.09;5281560;33;34014;-74
2022/10/03 04:23:57;;;;;;;;;;;;;;;13.96;69.16;100417.66;5283422;33;45152;-67
2022/10/03 04:27:17;;;;;;;;;;;;;;;13.32;71.63;100420.97;5291263;33;33987;-74
2022/10/03 04:30:21;;;;;;;;;;;;;;;13.40;71.28;100431.16;5278508;33;44560;-75
2022/10/03 04:33:30;;;;;;;;;;;;;;;12.97;72.22;100436.72;5293077;33;33645;-68
2022/10/03 04:36:37;;;;;;;;;;;;;;;13.20;72.42;100433.00;5267255;33;33232;-74
2022/10/03 04:39:39;;;;;;;;;;;;;;;13.19;72.02;100430.37;5268499;33;33803;-73
2022/10/03 04:42:57;;;;;;;;;;;;;;;13.64;70.54;100444.91;5288406;33;44745;-74
2022/10/03 04:46:17;;;;;;;;;;;;;;;13.01;71.49;100442.72;5280443;33;34500;-67
2022/10/03 04:49:39;;;;;;;;;;;;;;;13.25;71.60;100444.16;5282107;33;47456;-73
2022/10/03 04:53:02;;;;;;;;;;;;;;;13.93;68.53;100452.19;5271703;33;46302;-68
2022/10/03 04:56:05;;;;;;;;;;;;;;;13.34;71.28;100464.00;5279507;33;33714;-68
2022/10/03 04:59:07;;;;;;;;;;;;;;;13.69;69.29;100461.38;5295758;33;33938;-68
2022/10/03 05:02:09;;;;;;;;;;;;;;;12.74;73.51;100463.31;5279648;33;34301;-67
2022/10/03 05:05:30;;;;;;;;;;;;;;;13.43;70.39;100475.88;5301518;33;46793;-68
2022/10/03 05:08:35;;;;;;;;;;;;;;;13.31;70.36;100479.97;5258850;33;33629;-74
2022/10/03 05:11:40;;;;;;;;;;;;;;;14.32;67.08;100477.47;5271933;33;34653;-74
2022/10/03 05:15:01;;;;;;;;;;;;;;;13.82;68.86;100473.03;5293906;33;43012;-74
2022/10/03 05:18:24;;;;;;;;;;;;;;;13.15;70.89;100498.31;5253198;33;34610;-74
2022/10/03 05:21:33;;;;;;;;;;;;;;;13.74;68.60;100485.78;5275189;33;34465;-74
2022/10/03 05:24:46;;;;;;;;;;;;;;;13.28;69.97;100498.63;5266540;33;33702;-68
2022/10/03 05:28:03;;;;;;;;;;;;;;;13.60;69.12;100493.53;5261390;33;45486;-67
2022/10/03 05:31:17;;;;;;;;;;;;;;;13.50;68.81;100504.53;5292884;33;34497;-67
2022/10/03 05:34:22;;;;;;;;;;;;;;;14.29;66.04;100501.41;5265361;33;48626;-68
2022/10/03 05:37:42;;;;;;;;;;;;;;;14.65;65.05;100506.56;5290699;33;33293;-67
2022/10/03 05:41:00;;;;;;;;;;;;;;;14.34;64.83;100513.47;5281813;33;45165;-69
2022/10/03 05:44:05;;;;;;;;;;;;;;;14.09;65.23;100513.03;5275669;33;34475;-74
2022/10/03 05:47:43;;;;;;;;;;;;;;;14.79;62.77;100505.81;5274192;33;34234;-77
2022/10/03 05:50:29;;;;;;;;;;;;;;;15.70;59.93;100500.66;5283981;33;33274;-78
2022/10/03 05:53:34;;;;;;;;;;;;;;;15.62;59.32;100502.91;5292115;33;33381;-71
2022/10/03 05:56:36;;;;;;;;;;;;;;;15.91;58.71;100505.66;5270156;33;34456;-71
2022/10/03 06:00:00;;;;;;;;;;;;;;;16.32;57.59;100520.88;5282770;33;46311;-76
2022/10/03 06:03:02;;;;;;;;;;;;;;;15.87;57.39;100520.00;5576902;27;34364;-70
2022/10/03 06:06:16;;;;;;;;;;;;;;;15.51;59.08;100528.25;5301858;32;33448;-76
2022/10/03 06:09:25;;;;;;;;;;;;;;;16.85;54.21;100522.03;5293877;33;44917;-71
2022/10/03 06:12:48;;;;;;;;;;;;;;;16.82;53.91;100514.28;5284634;33;34335;-74
2022/10/03 06:15:53;;;;;;;;;;;;;;;16.33;54.99;100531.38;5297174;33;33381;-66
2022/10/03 06:19:05;;;;;;;;;;;;;;;16.08;55.81;100534.63;5287329;33;33301;-70
2022/10/03 06:22:28;;;;;;;;;;;;;;;16.81;53.66;100542.63;5292152;33;34908;-84
2022/10/03 06:25:43;;;;;;;;;;;;;;;15.78;57.05;100542.63;5302379;33;32967;-76
2022/10/03 06:28:51;;;;;;;;;;;;;;;15.60;56.87;100539.19;5283225;33;44798;-72
2022/10/03 06:31:59;;;;;;;;;;;;;;;17.05;53.30;100537.53;5294651;33;33419;-76
2022/10/03 06:35:20;;;;;;;;;;;;;;;17.73;50.37;100529.59;5283360;33;33997;-67
2022/10/03 06:38:41;;;;;;;;;;;;;;;17.27;51.72;100532.56;5283763;33;33625;-78
2022/10/03 06:41:43;;;;;;;;;;;;;;;17.60;50.55;100547.28;5296331;33;45280;-75
2022/10/03 06:45:03;;;;;;;;;;;;;;;17.10;51.81;100555.84;5278421;33;34290;-80
2022/10/03 06:48:18;;;;;;;;;;;;;;;16.23;53.98;100554.97;5291983;33;33118;-72
2022/10/03 06:51:38;;;;;;;;;;;;;;;16.98;52.46;100553.00;5298042;33;43264;-69
2022/10/03 06:54:51;;;;;;;;;;;;;;;17.84;51.03;100550.16;5285426;33;43365;-68
2022/10/03 06:57:53;;;;;;;;;;;;;;;16.64;52.77;100550.72;5298904;33;33116;-72
2022/10/03 07:01:10;;;;;;;;;;;;;;;17.82;49.88;100544.06;5284806;33;33328;-73
2022/10/03 07:04:31;;;;;;;;;;;;;;;18.40;47.95;100546.28;5291302;33;44461;-67
2022/10/03 07:07:46;;;;;;;;;;;;;;;17.93;48.54;100554.84;5301975;33;34610;-73
2022/10/03 07:11:08;;;;;;;;;;;;;;;18.69;47.00;100558.56;5285768;33;44496;-80
2022/10/03 07:14:15;;;;;;;;;;;;;;;18.17;48.12;100549.69;5295471;33;45045;-77
2022/10/03 07:17:26;;;;;;;;;;;;;;;17.37;49.73;100559.37;5291116;33;33250;-70
2022/10/03 07:20:40;;;;;;;;;;;;;;;16.63;50.99;100560.50;5288079;33;33808;-77
2022/10/03 07:23:45;;;;;;;;;;;;;;;17.33;49.71;100580.00;5296090;33;44498;-79
2022/10/03 07:27:10;;;;;;;;;;;;;;;17.47;49.62;100573.78;5287557;33;34766;-72
2022/10/03 07:30:16;;;;;;;;;;;;;;;17.69;48.38;100575.87;5296098;33;44411;-84
2022/10/03 07:33:29;;;;;;;;;;;;;;;18.19;47.72;100573.50;5268623;33;34132;-73
2022/10/03 07:40:23;;;;;;;;;;;;;;;18.48;45.94;100561.72;5302402;33;35233;-67
2022/10/03 07:43:31;;;;;;;;;;;;;;;17.27;49.56;100580.38;5287404;33;34695;-66
2022/10/03 07:46:40;;;;;;;;;;;;;;;16.45;51.05;100586.34;5278703;33;33765;-75
2022/10/03 07:49:58;;;;;;;;;;;;;;;16.09;52.37;100589.37;5292210;33;44697;-79
2022/10/03 07:53:19;;;;;;;;;;;;;;;15.77;53.89;100593.88;5290732;33;33194;-69
2022/10/03 07:56:41;;;;;;;;;;;;;;;15.28;55.44;100601.94;5291477;33;32775;-70
2022/10/03 07:59:51;;;;;;;;;;;;;;;14.93;56.51;100584.44;5283335;33;44579;-69
2022/10/03 08:03:21;;;;;;;;;;;;;;;15.25;55.70;100591.50;5285078;33;34571;-70
2022/10/03 08:06:41;;;;;;;;;;;;;;;15.22;56.11;100596.97;5293035;33;33670;-71
2022/10/03 08:09:44;;;;;;;;;;;;;;;15.14;55.81;100586.81;5283564;33;44625;-72
2022/10/03 08:13:04;;;;;;;;;;;;;;;14.78;56.99;100592.28;5305290;33;33243;-71
2022/10/03 08:16:06;;;;;;;;;;;;;;;14.99;56.81;100590.25;5273991;33;33849;-79
2022/10/03 08:19:13;;;;;;;;;;;;;;;14.81;57.11;100592.13;5287214;33;35935;-71
2022/10/03 08:22:15;;;;;;;;;;;;;;;15.25;56.17;100578.25;5300240;33;46496;-68
2022/10/03 08:25:17;;;;;;;;;;;;;;;15.19;55.74;100581.22;5286196;33;34431;-75
2022/10/03 08:28:28;;;;;;;;;;;;;;;15.50;55.06;100576.88;5298679;33;33270;-68
2022/10/03 08:31:40;;;;;;;;;;;;;;;15.28;54.87;100572.81;5283978;33;34750;-79
2022/10/03 08:34:46;;;;;;;;;;;;;;;15.37;55.21;100571.41;5283943;33;46313;-80
2022/10/03 08:38:03;;;;;;;;;;;;;;;15.40;54.40;100581.84;5304147;33;36677;-80
2022/10/03 08:41:11;;;;;;;;;;;;;;;15.72;53.61;100568.63;5271703;33;33824;-79
2022/10/03 08:44:32;;;;;;;;;;;;;;;15.18;54.94;100579.53;5288164;33;44984;-68
2022/10/03 08:47:50;;;;;;;;;;;;;;;15.51;53.76;100560.91;5282518;33;33717;-68
2022/10/03 08:50:55;;;;;;;;;;;;;;;15.85;52.31;100575.78;5287544;33;34017;-68
2022/10/03 08:54:04;;;;;;;;;;;;;;;15.38;53.15;100571.31;5297263;33;34380;-75
2022/10/03 08:57:24;;;;;;;;;;;;;;;15.89;52.13;100584.38;5293696;33;33186;-68
2022/10/03 09:00:32;;;;;;;;;;;;;;;15.78;52.19;100571.78;5302410;33;33902;-76
2022/10/03 09:03:53;;;;;;;;;;;;;;;16.17;52.16;100563.28;5290622;32;33921;-73
2022/10/03 09:06:55;;;;;;;;;;;;;;;15.83;52.32;100563.53;5281992;33;35821;-74
2022/10/03 09:10:24;;;;;;;;;;;;;;;16.22;51.39;100574.44;5296679;33;44872;-75
2022/10/03 09:15:45;;;;;;;;;;;;;;;16.59;49.72;100574.03;5429050;31;925716;-68
2022/10/03 09:18:59;;;;;;;;;;;;;;;16.91;48.76;100572.06;5431330;32;44506;-69
2022/10/03 09:22:04;;;;;;;;;;;;;;;16.49;49.32;100549.88;5445031;32;34176;-68
2022/10/03 09:25:09;;;;;;;;;;;;;;;16.46;48.74;100574.78;5440554;32;37882;-82
2022/10/03 09:28:30;;;;;;;;;;;;;;;16.07;49.01;100580.66;5421527;32;45058;-80
2022/10/03 09:31:32;;;;;;;;;;;;;;;16.55;47.91;100575.16;5446524;32;35175;-76
2022/10/03 09:34:35;;;;;;;;;;;;;;;16.99;46.46;100575.09;5414992;32;34781;-75
2022/10/03 09:37:42;;;;;;;;;;;;;;;18.01;44.40;100572.94;5437917;32;34702;-69
2022/10/03 09:40:54;;;;;;;;;;;;;;;19.55;40.56;100559.41;5438202;32;44886;-74
2022/10/03 09:44:02;;;;;;;;;;;;;;;19.37;41.06;100572.25;5433049;32;34169;-75
2022/10/03 09:47:21;;;;;;;;;;;;;;;18.36;43.02;100563.44;5425297;32;34220;-70
2022/10/03 09:50:23;;;;;;;;;;;;;;;18.62;42.02;100579.41;5425073;32;35388;-70
2022/10/03 09:53:28;;;;;;;;;;;;;;;18.03;44.37;100568.34;5447777;32;35611;-70
2022/10/03 09:56:46;;;;;;;;;;;;;;;18.26;44.39;100570.31;5430680;32;36120;-76
2022/10/03 09:59:56;;;;;;;;;;;;;;;19.51;41.31;100570.41;5435702;32;44765;-69
2022/10/03 10:03:01;;;;;;;;;;;;;;;19.78;41.16;100573.75;5448143;32;34164;-73
2022/10/03 10:06:21;;;;;;;;;;;;;;;20.33;39.63;100566.88;5421414;32;34086;-70
2022/10/03 10:09:44;;;;;;;;;;;;;;;21.00;37.56;100564.31;5436480;32;35965;-82
2022/10/03 10:13:01;;;;;;;;;;;;;;;20.22;38.53;100570.41;5438875;32;44716;-76
2022/10/03 10:16:09;;;;;;;;;;;;;;;18.43;42.30;100566.53;5420380;32;33741;-81
2022/10/03 10:19:33;;;;;;;;;;;;;;;19.44;40.58;100560.19;5428069;32;44154;-72
2022/10/03 10:22:41;;;;;;;;;;;;;;;19.83;39.98;100566.22;5436411;32;34194;-79
2022/10/03 10:25:46;;;;;;;;;;;;;;;18.05;43.52;100571.78;5434127;32;44567;-76
2022/10/03 10:28:54;;;;;;;;;;;;;;;18.15;43.84;100570.19;5433937;32;35474;-81
2022/10/03 10:32:05;;;;;;;;;;;;;;;17.67;45.05;100579.63;5426421;32;34685;-71
2022/10/03 10:35:14;;;;;;;;;;;;;;;17.27;45.85;100585.69;5420599;32;32998;-75
2022/10/03 10:38:36;;;;;;;;;;;;;;;18.18;44.90;100577.97;5417863;32;44396;-71
2022/10/03 10:41:56;;;;;;;;;;;;;;;18.48;44.39;100571.50;5428658;32;34063;-75
2022/10/03 10:45:04;;;;;;;;;;;;;;;18.73;42.29;100584.84;5415405;32;34372;-71
2022/10/03 10:48:17;;;;;;;;;;;;;;;18.63;43.18;100586.44;5411192;32;34158;-80
2022/10/03 10:51:24;;;;;;;;;;;;;;;18.07;44.49;100584.00;5426612;32;44606;-76
2022/10/03 10:54:40;;;;;;;;;;;;;;;18.03;45.06;100571.00;5408800;32;34942;-75
2022/10/03 10:57:57;;;;;;;;;;;;;;;16.90;47.53;100576.53;5427159;32;45185;-83
2022/10/03 11:00:59;;;;;;;;;;;;;;;17.63;45.89;100570.13;5439812;32;34683;-77
2022/10/03 11:04:04;;;;;;;;;;;;;;;17.02;46.66;100569.63;5423993;32;36267;-72
2022/10/03 11:07:26;;;;;;;;;;;;;;;17.32;46.81;100569.44;5436459;32;32970;-77
2022/10/03 11:10:47;;;;;;;;;;;;;;;17.84;45.91;100572.28;5419462;32;34683;-85
2022/10/03 11:13:59;;;;;;;;;;;;;;;17.50;46.62;100565.59;5423405;32;44328;-83
2022/10/03 11:17:19;;;;;;;;;;;;;;;17.21;46.47;100567.50;5435031;32;34778;-74
2022/10/03 11:20:35;;;;;;;;;;;;;;;17.29;46.86;100574.97;5420597;32;34469;-72
2022/10/03 11:23:56;;;;;;;;;;;;;;;17.83;45.82;100589.16;5419510;32;35521;-75
2022/10/03 11:26:58;;;;;;;;;;;;;;;17.32;46.89;100582.72;5414291;32;35019;-78
2022/10/03 11:30:06;;;;;;;;;;;;;;;16.74;48.41;100581.06;5411231;32;37335;-76
2022/10/03 11:33:27;;;;;;;;;;;;;;;17.10;47.53;100577.09;5425720;32;35198;-65
2022/10/03 11:36:52;;;;;;;;;;;;;;;16.81;49.06;100587.75;5422028;32;34141;-67
2022/10/03 11:39:53;;;;;;;;;;;;;;;17.19;48.43;100587.97;5427901;32;34670;-67
2022/10/03 11:42:58;;;;;;;;;;;;;;;16.98;48.21;100578.72;5413769;32;34137;-67
2022/10/03 11:46:39;;;;;;;;;;;;;;;16.49;50.04;100589.66;5370689;32;35822;-83
2022/10/03 11:49:55;;;;;;;;;;;;;;;16.72;49.39;100583.84;5377055;32;35800;-70
2022/10/03 11:53:00;;;;;;;;;;;;;;;16.86;48.86;100590.94;5353725;32;35467;-69
2022/10/03 11:56:07;;;;;;;;;;;;;;;16.75;49.13;100588.12;5421440;32;36006;-70
2022/10/03 11:59:12;;;;;;;;;;;;;;;17.33;47.95;100587.13;5432035;32;35152;-69
2022/10/03 12:02:17;;;;;;;;;;;;;;;16.85;48.19;100591.88;5418027;32;44356;-68
2022/10/03 12:05:38;;;;;;;;;;;;;;;16.78;48.89;100599.37;5431995;32;35862;-75
2022/10/03 12:08:53;;;;;;;;;;;;;;;16.47;51.22;100594.19;5416775;32;44916;-72
2022/10/03 12:12:05;;;;;;;;;;;;;;;16.16;54.09;100588.06;5426176;32;35443;-77
2022/10/03 12:15:14;;;;;;;;;;;;;;;16.50;55.44;100599.34;5431979;32;34270;-75
2022/10/03 12:18:17;;;;;;;;;;;;;;;16.54;54.41;100582.25;5405679;32;44631;-67
2022/10/03 12:21:21;;;;;;;;;;;;;;;16.49;54.90;100571.09;5436583;32;35659;-70
2022/10/03 12:24:24;;;;;;;;;;;;;;;16.54;55.03;100590.22;5415826;32;35451;-71
2022/10/03 12:27:32;;;;;;;;;;;;;;;16.72;54.18;100606.87;5422190;32;34318;-72
2022/10/03 12:30:55;;;;;;;;;;;;;;;16.99;53.40;100596.34;5426006;32;34177;-71
2022/10/03 12:34:01;;;;;;;;;;;;;;;16.72;53.17;100598.91;5405253;32;35995;-66
2022/10/03 12:37:22;;;;;;;;;;;;;;;17.41;53.60;100597.25;5430341;32;35386;-69
2022/10/03 12:40:35;;;;;;;;;;;;;;;17.14;50.45;100586.59;5407983;32;34076;-71
2022/10/03 12:43:41;;;;;;;;;;;;;;;16.47;51.00;100603.00;5409411;32;35953;-69
2022/10/03 12:47:03;;;;;;;;;;;;;;;17.08;49.81;100601.09;5415388;32;44679;-72
2022/10/03 12:50:08;;;;;;;;;;;;;;;16.96;50.49;100599.19;5421446;32;34285;-71
2022/10/03 12:53:16;;;;;;;;;;;;;;;17.04;49.80;100595.09;5416157;32;45951;-71
2022/10/03 12:56:29;;;;;;;;;;;;;;;17.46;48.27;100589.84;5416453;32;34190;-71
2022/10/03 12:59:40;;;;;;;;;;;;;;;17.78;47.62;100583.31;5406111;32;35170;-73
2022/10/03 13:03:01;;;;;;;;;;;;;;;18.63;46.08;100587.28;5429468;32;44571;-69
2022/10/03 13:06:12;;;;;;;;;;;;;;;17.62;47.88;100579.91;5411231;32;35269;-70
2022/10/03 13:09:17;;;;;;;;;;;;;;;17.05;48.30;100590.66;5411952;32;44688;-71
2022/10/03 13:12:23;;;;;;;;;;;;;;;17.95;46.35;100587.50;5413609;32;35461;-69
2022/10/03 13:15:43;;;;;;;;;;;;;;;17.20;47.58;100588.84;5410794;32;36348;-78
2022/10/03 13:18:49;;;;;;;;;;;;;;;18.19;46.27;100592.97;5429224;32;45132;-78
2022/10/03 13:21:51;;;;;;;;;;;;;;;17.85;46.43;100602.38;5420825;32;34344;-73
2022/10/03 13:25:14;;;;;;;;;;;;;;;20.21;41.71;100592.69;5434009;32;35610;-81
2022/10/03 13:28:17;;;;;;;;;;;;;;;21.33;39.66;100586.66;5421290;32;46287;-70
2022/10/03 13:31:27;;;;;;;;;;;;;;;20.94;40.54;100580.84;5410045;32;36465;-71
2022/10/03 13:34:31;;;;;;;;;;;;;;;22.36;37.60;100569.16;5417769;32;35749;-70
2022/10/03 13:37:47;;;;;;;;;;;;;;;20.03;42.44;100583.44;5407601;32;34656;-68
2022/10/03 13:40:49;;;;;;;;;;;;;;;18.54;46.73;100576.41;5425772;32;44489;-67
2022/10/03 13:43:55;;;;;;;;;;;;;;;18.92;46.05;100571.94;5417936;32;34171;-68
2022/10/03 13:47:09;;;;;;;;;;;;;;;17.71;49.76;100578.44;5387702;32;35378;-67
2022/10/03 13:50:31;;;;;;;;;;;;;;;18.56;47.53;100578.03;5429582;32;44772;-79
2022/10/03 13:53:46;;;;;;;;;;;;;;;18.05;49.01;100572.63;5415995;32;34097;-68
2022/10/03 13:56:51;;;;;;;;;;;;;;;17.80;48.95;100583.19;5438121;32;44536;-68
2022/10/03 14:00:03;;;;;;;;;;;;;;;17.34;48.63;100564.91;5404573;32;34178;-67
2022/10/03 14:03:20;;;;;;;;;;;;;;;17.13;49.95;100571.56;5414887;32;34130;-67
2022/10/03 14:06:25;;;;;;;;;;;;;;;17.33;48.67;100568.53;5433634;32;33995;-77
2022/10/03 14:09:32;;;;;;;;;;;;;;;17.48;48.47;100566.66;5409384;32;35411;-67
2022/10/03 14:12:53;;;;;;;;;;;;;;;17.23;48.86;100565.59;5438695;32;34089;-69
2022/10/03 14:15:57;;;;;;;;;;;;;;;17.01;49.44;100567.91;5409704;32;34656;-68
2022/10/03 14:19:11;;;;;;;;;;;;;;;17.68;47.89;100568.87;5421580;32;35610;-68
2022/10/03 14:22:21;;;;;;;;;;;;;;;16.97;49.69;100571.69;5421774;32;44676;-66
2022/10/03 14:25:40;;;;;;;;;;;;;;;17.58;48.27;100570.41;5419812;32;35864;-72
2022/10/03 14:28:47;;;;;;;;;;;;;;;17.93;46.95;100562.81;5412900;32;45269;-67
2022/10/03 14:32:08;;;;;;;;;;;;;;;17.95;47.02;100562.72;5415303;32;33975;-68
2022/10/03 14:35:42;;;;;;;;;;;;;;;17.31;48.78;100568.59;5419426;32;34769;-68
2022/10/03 14:38:56;;;;;;;;;;;;;;;17.27;47.99;100568.91;5432374;32;46792;-67
2022/10/03 14:42:17;;;;;;;;;;;;;;;17.14;48.83;100574.16;5410585;32;34492;-67
2022/10/03 14:45:22;;;;;;;;;;;;;;;17.51;48.36;100567.31;5409195;32;45474;-68
2022/10/03 14:48:25;;;;;;;;;;;;;;;17.29;48.81;100586.44;5413512;32;35760;-68
2022/10/03 14:51:29;;;;;;;;;;;;;;;16.86;49.47;100571.50;5413308;32;35611;-67
2022/10/03 14:54:36;;;;;;;;;;;;;;;17.33;47.90;100572.03;5433485;32;33921;-76
2022/10/03 14:57:44;;;;;;;;;;;;;;;17.13;47.41;100564.47;5409611;32;35485;-76
2022/10/03 15:01:11;;;;;;;;;;;;;;;17.22;46.23;100577.16;5420425;32;36531;-76
2022/10/03 15:04:23;;;;;;;;;;;;;;;17.14;45.34;100576.81;5418823;32;43394;-77
2022/10/03 15:07:32;;;;;;;;;;;;;;;16.36;47.57;100586.03;5425499;32;35389;-68
2022/10/03 15:10:37;;;;;;;;;;;;;;;16.37;47.39;100590.41;5411437;32;33665;-76
2022/10/03 15:13:41;;;;;;;;;;;;;;;16.43;47.18;100587.38;5412073;32;34573;-71
2022/10/03 15:16:51;;;;;;;;;;;;;;;16.70;47.20;100583.09;5417451;32;44386;-76
2022/10/03 15:19:54;;;;;;;;;;;;;;;16.68;47.04;100582.31;5389998;32;34987;-71
2022/10/03 15:22:57;;;;;;;;;;;;;;;17.11;46.29;100582.28;5392541;32;34128;-77
2022/10/03 15:25:58;;;;;;;;;;;;;;;17.44;45.89;100576.63;5415312;32;35421;-74
2022/10/03 15:29:02;;;;;;;;;;;;;;;17.16;46.16;100593.50;5395629;32;35328;-75
2022/10/03 15:32:05;;;;;;;;;;;;;;;16.64;47.81;100585.22;5405432;32;35273;-75
2022/10/03 15:35:14;;;;;;;;;;;;;;;16.67;46.96;100591.19;5393154;32;33924;-71
2022/10/03 15:38:19;;;;;;;;;;;;;;;16.33;48.10;100581.75;5431949;32;43475;-74
2022/10/03 15:41:27;;;;;;;;;;;;;;;16.25;47.97;100576.94;5429269;32;34529;-68
2022/10/03 15:44:38;;;;;;;;;;;;;;;16.04;48.14;100574.69;5393907;32;33961;-72
2022/10/03 15:47:43;;;;;;;;;;;;;;;16.19;48.06;100581.75;5425906;32;44846;-75
2022/10/03 15:50:48;;;;;;;;;;;;;;;16.40;47.58;100582.25;5425873;32;35411;-73
2022/10/03 15:53:50;;;;;;;;;;;;;;;15.80;48.63;100579.63;5411899;32;34147;-78
2022/10/03 15:56:54;;;;;;;;;;;;;;;16.05;48.04;100581.72;5409471;32;34371;-72
2022/10/03 15:59:57;;;;;;;;;;;;;;;16.51;46.77;100585.97;5397277;32;34150;-72
2022/10/03 16:03:07;;;;;;;;;;;;;;;16.63;46.75;100594.13;5413425;32;34043;-73
2022/10/03 16:06:16;;;;;;;;;;;;;;;16.41;46.71;100607.81;5396682;32;34194;-71
2022/10/03 16:09:22;;;;;;;;;;;;;;;16.24;47.45;100608.84;5401382;32;44756;-71
2022/10/03 16:12:24;;;;;;;;;;;;;;;16.39;47.24;100588.50;5393325;32;34799;-71
2022/10/03 16:15:27;;;;;;;;;;;;;;;16.34;47.41;100606.50;5423925;32;33583;-71
2022/10/03 16:18:29;;;;;;;;;;;;;;;16.13;47.65;100590.06;5417267;32;33922;-75
2022/10/03 16:21:31;;;;;;;;;;;;;;;15.86;48.52;100603.97;5416693;32;34191;-71
2022/10/03 16:24:34;;;;;;;;;;;;;;;15.97;48.27;100603.34;5429544;32;35466;-75
2022/10/03 16:27:39;;;;;;;;;;;;;;;15.75;49.10;100601.06;5408184;32;35280;-75
2022/10/03 16:30:43;;;;;;;;;;;;;;;15.65;49.31;100606.06;5419414;32;44668;-75
2022/10/03 16:33:50;;;;;;;;;;;;;;;15.99;48.66;100601.47;5381127;32;34674;-75